Data for 07/10/2013

Time Sea-Level Adjusted Pressure Absolute Pressure Temperature Relative Humidity Dew Point   
(mb) (inHg) (mb) (inHg) (C) (F) (%) (C) (F)
00:05 1023 30.21 852 25.16 18.5 65.3 55 9.5 49.2
00:10 1023 30.21 852 25.16 18.4 65.2 56 9.5 49.1
00:15 1023 30.21 852 25.16 18.5 65.2 56 9.5 49.1
00:20 1023 30.21 852 25.16 18.4 65.1 56 9.6 49.2
00:25 1023 30.21 852 25.16 18.3 64.9 56 9.5 49.1
00:30 1023 30.21 852 25.16 18.2 64.8 57 9.6 49.3
00:35 1023 30.21 852 25.16 18.1 64.6 57 9.5 49.2
00:40 1023 30.21 852 25.16 18 64.4 57 9.6 49.2
00:45 1023 30.21 852 25.16 17.9 64.1 58 9.6 49.3
00:50 1023 30.21 852 25.16 17.7 63.9 59 9.6 49.3
00:55 1023 30.21 852 25.16 17.5 63.6 59 9.6 49.2
01:00 1023 30.21 852 25.16 17.4 63.3 60 9.6 49.2
01:05 1023 30.21 852 25.16 17.2 63 60 9.5 49.1
01:10 1023 30.21 852 25.16 17 62.6 61 9.4 49
01:15 1023 30.21 852 25.16 16.8 62.3 61 9.3 48.7
01:20 1023 30.21 852 25.16 16.8 62.2 61 9.3 48.7
01:25 1023 30.21 852 25.16 16.7 62 61 9.3 48.7
01:30 1023 30.21 852 25.16 16.6 61.8 62 9.3 48.7
01:35 1023 30.21 852 25.16 16.4 61.6 62 9.2 48.6
01:40 1023 30.21 852 25.16 16.3 61.4 62 9.2 48.6
01:45 1023 30.21 852 25.16 16.2 61.2 63 9.2 48.5
01:50 1023 30.21 852 25.16 16.1 61 63 9.3 48.7
01:55 1023 30.21 852 25.16 16 60.8 64 9.3 48.7
02:00 1023 30.21 852 25.16 16 60.8 64 9.3 48.7
02:05 1023 30.21 852 25.16 16.1 61 65 9.5 49.1
02:10 1023 30.21 852 25.16 15.8 60.4 66 9.5 49.1
02:15 1023 30.21 852 25.16 15.2 59.3 69 9.5 49.1
02:20 1023 30.21 852 25.16 14.9 58.9 69 9.2 48.6
02:25 1023 30.21 852 25.16 14.8 58.6 69 9.1 48.4
02:30 1023 30.21 852 25.16 14.5 58.1 67 8.6 47.4
02:35 1023 30.21 852 25.16 14.6 58.3 66 8.3 47
02:40 1023 30.21 852 25.16 14.9 58.8 65 8.5 47.4
02:45 1023 30.21 852 25.16 15 59.1 65 8.6 47.4
02:50 1023 30.21 852 25.16 14.9 58.9 66 8.6 47.5
02:55 1023 30.21 852 25.16 14.8 58.6 67 8.7 47.7
03:00 1023 30.21 852 25.16 14.8 58.6 66 8.6 47.5
03:05 1023 30.21 852 25.16 14.7 58.5 67 8.8 47.8
03:10 1023 30.21 852 25.16 14.7 58.5 68 8.9 48
03:15 1023 30.21 852 25.16 14.7 58.5 67 8.8 47.8
03:20 1023 30.21 852 25.16 14.7 58.4 67 8.8 47.8
03:25 1023 30.21 852 25.16 14.6 58.3 68 8.8 47.8
03:30 1023 30.21 852 25.16 14.6 58.2 68 8.8 47.8
03:35 1023 30.21 852 25.16 14.6 58.3 68 8.8 47.9
03:40 1023 30.21 852 25.16 14.7 58.5 68 9 48.1
03:45 1023 30.21 852 25.16 14.8 58.6 67 8.9 47.9
03:50 1023 30.21 852 25.16 14.7 58.5 67 8.8 47.8
03:55 1023 30.21 852 25.16 14.7 58.5 67 8.8 47.8
04:00 1023 30.21 852 25.16 14.6 58.2 68 8.7 47.7
04:05 1023 30.21 852 25.16 14.6 58.2 67 8.5 47.4
04:10 1023 30.21 852 25.16 14.8 58.6 66 8.6 47.5
04:15 1023 30.21 852 25.16 14.7 58.4 66 8.5 47.4
04:20 1023 30.21 852 25.16 14.5 58.2 67 8.5 47.3
04:25 1023 30.21 852 25.16 14.5 58.1 67 8.5 47.2
04:30 1023 30.21 852 25.16 14.5 58.1 66 8.4 47
04:35 1023 30.21 852 25.16 14.4 57.8 67 8.4 47.1
04:40 1023 30.21 852 25.16 14.3 57.8 66 8.2 46.7
04:45 1023 30.21 852 25.16 14.5 58 65 8.1 46.5
04:50 1023 30.21 852 25.16 14.4 58 65 8 46.3
04:55 1023 30.21 852 25.16 14.3 57.7 64 7.7 45.8
05:00 1023 30.21 852 25.16 14.2 57.5 64 7.6 45.7
05:05 1023 30.21 852 25.16 14.3 57.7 64 7.6 45.6
05:10 1023 30.21 852 25.16 14.4 57.9 64 7.6 45.8
05:15 1023 30.21 852 25.16 14.5 58.1 63 7.6 45.6
05:20 1023 30.21 852 25.16 14.5 58.2 63 7.5 45.6
05:25 1023 30.21 852 25.16 14.5 58.2 63 7.5 45.6
05:30 1023 30.21 852 25.16 14.7 58.4 62 7.5 45.6
05:35 1023 30.21 852 25.16 14.8 58.7 61 7.4 45.3
05:40 1023 30.21 852 25.16 14.9 58.8 61 7.5 45.5
05:45 1023 30.21 852 25.16 14.7 58.5 60 7.2 45
05:50 1023 30.21 852 25.16 14.8 58.6 60 7.2 45
05:55 1023 30.21 852 25.16 15.1 59.1 60 7.3 45.2
06:00 1023 30.21 852 25.16 15.4 59.7 59 7.5 45.4
06:05 1023 30.21 852 25.16 15.5 60 59 7.6 45.6
06:10 1023 30.21 852 25.16 15.9 60.6 57 7.5 45.6
06:15 1023 30.21 852 25.16 16.2 61.1 57 7.7 45.9
06:20 1023 30.21 852 25.16 16.3 61.3 57 7.9 46.2
06:25 1023 30.21 852 25.16 16.5 61.8 57 8.1 46.5
06:30 1023 30.21 852 25.16 17 62.5 55 8 46.4
06:35 1023 30.21 852 25.16 17.1 62.8 55 8.1 46.5
06:40 1023 30.21 852 25.16 17.3 63.1 55 8.2 46.8
06:45 1023 30.21 852 25.16 17.9 64.2 55 8.9 47.9
06:50 1023 30.21 852 25.16 18.2 64.7 54 8.7 47.6
06:55 1023 30.21 852 25.16 18 64.4 54 8.7 47.6
07:00 1023 30.21 852 25.16 17.8 64.1 53 8.3 46.9
07:05 1023 30.21 852 25.16 17.8 64.1 53 8.2 46.7
07:10 1023 30.21 852 25.16 17.9 64.2 53 8.3 46.9
07:15 1023 30.21 852 25.16 18.1 64.5 52 8.1 46.6
07:20 1023 30.21 852 25.16 18.2 64.8 51 8.1 46.5
07:25 1023 30.21 852 25.16 18.6 65.4 52 8.6 47.4
07:30 1023 30.21 852 25.16 19.2 66.6 49 8.4 47.1
07:35 1023 30.21 852 25.16 19.7 67.5 48 8.6 47.5
07:40 1023 30.21 852 25.16 19.8 67.7 48 8.7 47.7
07:45 1023 30.21 852 25.16 20.5 68.9 47 8.9 48
07:50 1023 30.21 852 25.16 21.1 69.9 45 9 48.2
07:55 1023 30.21 852 25.16 21.2 70.1 44 8.7 47.6
08:00 1023 30.21 852 25.16 21.4 70.5 44 8.9 48.1
08:05 1023 30.21 852 25.16 21.2 70.1 45 9 48.2
08:10 1023 30.21 852 25.16 21.1 69.9 45 8.8 47.9
08:15 1023 30.21 852 25.16 21.8 71.2 44 9.2 48.6
08:20 1023 30.21 852 25.16 21.7 71.1 46 9.7 49.5
08:25 1023 30.21 852 25.16 21.2 70.2 45 8.8 47.9
08:30 1023 30.21 852 25.16 21.6 70.8 43 8.6 47.5
08:35 1023 30.21 852 25.16 21.6 70.9 43 8.8 47.8
08:40 1023 30.21 852 25.16 21.9 71.4 39 7.6 45.7
08:45 1023 30.21 852 25.16 22.2 72 36 6.5 43.6
08:50 1023 30.21 852 25.16 22.6 72.6 36 7 44.6
08:55 1023 30.21 852 25.16 23 73.3 35 6.8 44.2
09:00 1023 30.21 852 25.16 23.4 74 33 6.5 43.7
09:05 1023 30.21 852 25.16 23.8 74.9 31 6.1 43
09:10 1023 30.21 852 25.16 24.3 75.7 32 6.9 44.4
09:15 1023 30.21 852 25.16 24.2 75.6 32 6.7 44
09:20 1023 30.21 852 25.16 24.5 76.2 32 7.2 45
09:25 1023 30.21 852 25.16 25 77 32 7.6 45.7
09:30 1023 30.21 852 25.16 25 77.1 32 7.5 45.6
09:35 1023 30.21 852 25.16 24.8 76.6 33 7.5 45.5
09:40 1023 30.21 852 25.16 25.9 78.6 31 7.8 46
09:45 1022 30.18 852 25.16 25.4 77.7 33 8 46.5
09:50 1022 30.18 852 25.16 24.6 76.2 33 7.7 45.8
09:55 1022 30.18 852 25.16 24.7 76.4 32 7.1 44.8
10:00 1022 30.18 852 25.16 25.7 78.3 30 6.9 44.5
10:05 1022 30.18 852 25.16 25.6 78.1 30 6.9 44.5
10:10 1022 30.18 852 25.16 25.9 78.7 30 7.4 45.2
10:15 1022 30.18 852 25.16 26.2 79.1 30 7.6 45.7
10:20 1022 30.18 852 25.16 26.1 79 31 7.8 46.1
10:25 1022 30.18 851 25.13 26.7 80 30 8 46.4
10:30 1022 30.18 851 25.13 26.9 80.4 30 8.1 46.6
10:35 1022 30.18 851 25.13 27 80.5 31 8.5 47.3
10:40 1022 30.18 851 25.13 27 80.5 30 8.2 46.8
10:45 1022 30.18 851 25.13 27.6 81.7 30 8.6 47.4
10:50 1022 30.18 851 25.13 28.6 83.4 28 8.7 47.6
10:55 1022 30.18 851 25.13 28.5 83.3 28 8.8 47.8
11:00 1022 30.18 851 25.13 28.3 82.9 28 8.5 47.2
11:05 1022 30.18 851 25.13 28.4 83.1 29 8.8 47.8
11:10 1022 30.18 851 25.13 28.4 83.1 27 8 46.4
11:15 1022 30.18 851 25.13 28.5 83.3 27 8.3 46.9
11:20 1022 30.18 851 25.13 28.5 83.3 27 7.9 46.1
11:25 1022 30.18 851 25.13 28.2 82.8 26 7.3 45.2
11:30 1022 30.18 851 25.13 28.6 83.4 24 6.3 43.4
11:35 1022 30.18 851 25.13 28.8 83.8 24 6.4 43.5
11:40 1022 30.18 851 25.13 29.1 84.4 23 6 42.7
11:45 1021 30.15 851 25.13 29.1 84.4 20 3.9 39
11:50 1021 30.15 851 25.13 29.3 84.7 19 3.5 38.2
11:55 1021 30.15 850 25.1 29.8 85.6 15 0.8 33.5
12:00 1021 30.15 850 25.1 30.4 86.7 15 1.4 34.5
12:05 1021 30.15 850 25.1 30.8 87.4 16 2.4 36.3
12:10 1021 30.15 850 25.1 30.1 86.3 18 3.5 38.3
12:15 1021 30.15 850 25.1 29.4 84.9 17 1.7 35.1
12:20 1021 30.15 850 25.1 30.1 86.1 16 1.9 35.5
12:25 1021 30.15 850 25.1 30.4 86.7 15 1.5 34.7
12:30 1021 30.15 850 25.1 30.8 87.5 14 0.7 33.3
12:35 1021 30.15 850 25.1 31.1 88 14 0.4 32.7
12:40 1021 30.15 850 25.1 30.2 86.4 14 -0.4 31.3
12:45 1021 30.15 850 25.1 30.5 86.8 13 -0.5 31.1
12:50 1021 30.15 850 25.1 30.6 87 13 -0.5 31.1
12:55 1021 30.15 850 25.1 31.6 88.8 12 -1 30.2
13:00 1020 30.12 850 25.1 31.6 88.8 12 -0.8 30.5
13:05 1020 30.12 850 25.1 31.1 88 13 -0.5 31.1
13:10 1020 30.12 850 25.1 31.5 88.8 12 -1.1 30.1
13:15 1020 30.12 849 25.07 31.3 88.3 12 -1.2 29.9
13:20 1020 30.12 849 25.07 31.6 88.9 10 -3.6 25.4
13:25 1020 30.12 849 25.07 32.2 90 10 -2.5 27.5
13:30 1020 30.12 849 25.07 31.8 89.3 10 -2.7 27.1
13:35 1020 30.12 849 25.07 32 89.5 10 -3.3 26
13:40 1020 30.12 849 25.07 32.3 90.1 10 -3.4 25.9
13:45 1020 30.12 849 25.07 32.5 90.4 10 -3.2 26.3
13:50 1020 30.12 849 25.07 32.1 89.7 10 -2.6 27.3
13:55 1020 30.12 849 25.07 31.6 88.8 10 -3.3 26
14:00 1020 30.12 849 25.07 31.9 89.4 10 -2.8 26.9
14:05 1019 30.09 849 25.07 32.4 90.3 11 -0.9 30.4
14:10 1019 30.09 849 25.07 32.1 89.7 11 -1.2 29.9
14:15 1019 30.09 849 25.07 32.5 90.6 10 -2.7 27.1
14:20 1019 30.09 849 25.07 32.7 90.8 10 -2.2 28
14:25 1019 30.09 848 25.04 33.2 91.7 11 -1.4 29.5
14:30 1019 30.09 848 25.04 33 91.4 10 -2.4 27.7
14:35 1019 30.09 848 25.04 33.2 91.8 10 -2.2 28
14:40 1019 30.09 848 25.04 33.4 92.2 9 -2.7 27.1
14:45 1019 30.09 848 25.04 32.8 91 10 -3.1 26.4
14:50 1019 30.09 848 25.04 32.3 90.1 11 -2 28.5
14:55 1019 30.09 848 25.04 33.4 92 9 -2.9 26.8
15:00 1019 30.09 848 25.04 32.8 91.1 10 -2 28.3
15:05 1019 30.09 848 25.04 32.5 90.4 10 -2.7 27.1
15:10 1018 30.06 848 25.04 32.9 91.2 10 -3 26.6
15:15 1018 30.06 848 25.04 32.4 90.4 10 -2.9 26.8
15:20 1018 30.06 848 25.04 32.8 91.1 10 -2.9 26.9
15:25 1018 30.06 848 25.04 32.9 91.2 9 -3.3 26
15:30 1018 30.06 848 25.04 33.7 92.6 10 -1.8 28.8
15:35 1018 30.06 847 25.01 33.3 91.9 10 -1.9 28.6
15:40 1018 30.06 847 25.01 32.9 91.3 11 -1.2 29.9
15:45 1018 30.06 847 25.01 33.3 91.9 10 -2.7 27.2
15:50 1018 30.06 847 25.01 33.3 92 11 -0.8 30.6
15:55 1018 30.06 847 25.01 33 91.5 11 -0.5 31.1
16:00 1018 30.06 847 25.01 33.9 92.9 10 -1.6 29.2
16:05 1018 30.06 847 25.01 34 93.2 10 -2.1 28.2
16:10 1018 30.06 847 25.01 33.9 93 10 -1.7 28.9
16:15 1018 30.06 847 25.01 34.1 93.3 11 -0.5 31.1
16:20 1018 30.06 847 25.01 34.1 93.4 10 -1 30.2
16:25 1018 30.06 847 25.01 34.5 94.1 9 -2.3 27.8
16:30 1018 30.06 847 25.01 34.4 93.8 10 -1.7 28.9
16:35 1018 30.06 847 25.01 33.8 92.9 10 -1.7 28.9
16:40 1017 30.03 847 25.01 32.7 90.8 10 -2 28.3
16:45 1017 30.03 847 25.01 32.6 90.6 10 -2.1 28.2
16:50 1017 30.03 847 25.01 32.7 90.9 12 0.5 32.9
16:55 1017 30.03 847 25.01 32.4 90.3 11 -1 30.2
17:00 1017 30.03 847 25.01 31.9 89.5 11 -1.6 29.1
17:05 1017 30.03 847 25.01 31.8 89.2 14 0.9 33.7
17:10 1017 30.03 847 25.01 31.5 88.7 13 0.4 32.8
17:15 1018 30.06 847 25.01 30.8 87.4 14 0.7 33.3
17:20 1018 30.06 847 25.01 30.4 86.8 15 1.6 34.8
17:25 1018 30.06 847 25.01 30.1 86.2 17 3 37.4
17:30 1018 30.06 847 25.01 29.9 85.7 17 2.4 36.3
17:35 1018 30.06 847 25.01 29.5 85.1 19 3.5 38.3
17:40 1017 30.03 847 25.01 29.5 85 15 0.9 33.6
17:45 1017 30.03 847 25.01 29.6 85.3 17 2.7 36.9
17:50 1017 30.03 847 25.01 29.4 85 17 2 35.7
17:55 1017 30.03 847 25.01 29.2 84.5 18 2.8 37
18:00 1017 30.03 846 24.98 29.2 84.6 17 2 35.6
18:05 1017 30.03 846 24.98 29.3 84.8 15 0.6 33.2
18:10 1017 30.03 846 24.98 29.1 84.5 15 -0.2 31.7
18:15 1017 30.03 846 24.98 29.1 84.4 14 -0.6 31
18:20 1017 30.03 846 24.98 29.3 84.7 14 -0.3 31.4
18:25 1017 30.03 846 24.98 29.7 85.4 15 1 33.8
18:30 1017 30.03 846 24.98 29.7 85.4 15 0.3 32.5
18:35 1017 30.03 846 24.98 29.6 85.2 16 1.7 35
18:40 1017 30.03 846 24.98 29.5 85.1 16 1 33.8
18:45 1017 30.03 846 24.98 29.2 84.6 18 2.8 37.1
18:50 1017 30.03 846 24.98 28.9 84 18 2.2 36
18:55 1017 30.03 846 24.98 28.9 84.1 16 0.7 33.2
19:00 1017 30.03 846 24.98 28.7 83.7 19 3.3 37.9
19:05 1017 30.03 846 24.98 28.4 83.2 21 4.4 40
19:10 1017 30.03 846 24.98 28 82.5 22 4.7 40.5
19:15 1017 30.03 846 24.98 27.8 82 24 5.6 42.1
19:20 1017 30.03 846 24.98 27.5 81.4 25 5.9 42.6
19:25 1017 30.03 846 24.98 27.2 81 24 5 41
19:30 1017 30.03 846 24.98 27.1 80.8 24 4.9 40.8
19:35 1016 30 846 24.98 27 80.6 22 3.5 38.2
19:40 1016 30 846 24.98 27.1 80.7 21 3 37.4
19:45 1016 30 846 24.98 27 80.5 21 3.1 37.6
19:50 1016 30 846 24.98 26.8 80.2 22 3.9 39
19:55 1016 30 846 24.98 26.4 79.4 24 4.5 40.1
20:00 1016 30 845 24.95 26.1 78.9 24 4.5 40.1
20:05 1016 30 845 24.95 26 78.7 24 3.9 38.9
20:10 1016 30 845 24.95 26.2 79.1 23 3.9 39
20:15 1016 30 845 24.95 25.8 78.5 24 4 39.3
20:20 1016 30 845 24.95 25.6 78 23 3.3 38
20:25 1016 30 845 24.95 25.5 77.9 24 3.5 38.4
20:30 1016 30 845 24.95 25.4 77.7 24 3.9 38.9
20:35 1016 30 845 24.95 25.1 77.2 26 4.4 39.9
20:40 1016 30 845 24.95 24.8 76.6 26 4.3 39.8
20:45 1016 30 845 24.95 24.5 76.2 27 4.6 40.2
20:50 1016 30 845 24.95 24.4 75.8 26 3.9 39
20:55 1016 30 845 24.95 24.5 76.1 25 3.7 38.7
21:00 1016 30 845 24.95 24.7 76.5 25 3.4 38.2
21:05 1016 30 845 24.95 24.7 76.4 25 3.6 38.4
21:10 1016 30 845 24.95 24.7 76.5 25 3.4 38.1
21:15 1016 30 845 24.95 24.6 76.3 25 3.5 38.3
21:20 1016 30 845 24.95 24.4 75.8 26 3.6 38.5
21:25 1016 30 845 24.95 24.2 75.6 25 3.4 38.2
21:30 1016 30 845 24.95 24 75.2 27 4 39.2
21:35 1016 30 845 24.95 23.6 74.4 27 3.5 38.3
21:40 1016 30 845 24.95 23.5 74.4 27 3.6 38.5
21:45 1016 30 845 24.95 23.2 73.7 29 4.5 40.1
21:50 1016 30 845 24.95 22.5 72.5 29 3.8 38.8
21:55 1016 30 845 24.95 22.4 72.4 29 3.5 38.3
22:00 1016 30 845 24.95 22.5 72.6 28 3.6 38.4
22:05 1016 30 845 24.95 22.9 73.2 27 2.9 37.3
22:10 1016 30 845 24.95 23 73.5 27 3.3 38
22:15 1016 30 845 24.95 23 73.5 26 2.9 37.2
22:20 1016 30 845 24.95 23.1 73.5 27 3.1 37.7
22:25 1015 29.97 844 24.92 23.2 73.7 25 2.4 36.3
22:30 1015 29.97 845 24.95 24.4 75.9 19 -0.3 31.4
22:35 1016 30 845 24.95 24.9 76.7 25 3.5 38.2
22:40 1016 30 845 24.95 24.1 75.4 24 2.7 36.9
22:45 1016 30 845 24.95 23.9 75 28 4.4 39.9
22:50 1016 30 845 24.95 22.8 73 31 4.9 40.8
22:55 1016 30 845 24.95 22.4 72.2 31 4.8 40.6
23:00 1016 30 845 24.95 22.1 71.8 29 3.6 38.5
23:05 1016 30 845 24.95 22.3 72.2 30 4.1 39.3
23:10 1016 30 845 24.95 22 71.6 31 4.4 39.8
23:15 1016 30 845 24.95 21.9 71.3 30 3.8 38.8
23:20 1016 30 845 24.95 21.8 71.2 31 4.1 39.5
23:25 1016 30 845 24.95 21.7 71 30 3.7 38.7
23:30 1016 30 845 24.95 21.6 70.9 31 4.2 39.5
23:35 1015 29.97 845 24.95 21.8 71.2 28 2.6 36.6
23:40 1015 29.97 845 24.95 22.1 71.7 28 2.8 37
23:45 1015 29.97 844 24.92 22.2 72 27 2.4 36.3
23:50 1015 29.97 844 24.92 22.2 72 27 2.3 36.2
23:55 1015 29.97 844 24.92 22.4 72.3 27 2.5 36.4
24:00 1015 29.97 844 24.92 22.1 71.8 28 3 37.4